Time;durP1;ratioP1;P1;durP2;ratioP2;P2;SDS_P1;SDS_P2;PMS_P1;PMS_P2;Temp;Humidity;BMP_temperature;BMP_pressure;BME280_temperature;BME280_humidity;BME280_pressure;Samples;Min_cycle;Max_cycle;Signal;HPM_P1;HPM_P2
2022/03/19 00:00:29;;;;;;;0.30;0.20;;;;;;;7.09;66.19;102718.53;5041696;28;20446;-49
2022/03/19 00:02:56;;;;;;;0.30;0.10;;;;;;;7.19;66.86;102719.66;5044575;28;20475;-49
2022/03/19 00:05:22;;;;;;;0.30;0.20;;;;;;;7.22;66.57;102713.53;5053002;28;20454;-49
2022/03/19 00:07:50;;;;;;;0.30;0.17;;;;;;;7.09;66.70;102725.56;5044830;28;20815;-49
2022/03/19 00:10:18;;;;;;;0.30;0.20;;;;;;;7.09;67.05;102718.53;5049071;28;20451;-49
2022/03/19 00:12:45;;;;;;;0.30;0.20;;;;;;;6.96;67.47;102724.38;5047090;28;20479;-50
2022/03/19 00:15:11;;;;;;;0.30;0.10;;;;;;;6.90;68.30;102728.63;5054773;28;20504;-49
2022/03/19 00:17:38;;;;;;;0.30;0.20;;;;;;;6.76;67.93;102730.91;5053799;28;20532;-49
2022/03/19 00:20:06;;;;;;;0.30;0.10;;;;;;;6.85;68.42;102725.84;5049579;28;20447;-49
2022/03/19 00:22:32;;;;;;;0.30;0.20;;;;;;;6.76;69.04;102715.94;5050302;28;20474;-49
2022/03/19 00:25:00;;;;;;;0.23;0.20;;;;;;;6.75;69.26;102723.81;5043960;28;20458;-49
2022/03/19 00:27:26;;;;;;;0.30;0.20;;;;;;;6.93;68.21;102715.47;5043320;28;20440;-49
2022/03/19 00:29:53;;;;;;;0.30;0.20;;;;;;;6.85;68.17;102712.63;5048988;28;20459;-49
2022/03/19 00:32:20;;;;;;;0.30;0.10;;;;;;;6.88;68.07;102712.72;5048605;28;20836;-49
2022/03/19 00:34:46;;;;;;;0.20;0.10;;;;;;;6.79;68.07;102707.19;5042175;28;20451;-49
2022/03/19 00:37:13;;;;;;;0.20;0.10;;;;;;;6.87;68.26;102710.94;5056212;28;20486;-49
2022/03/19 00:39:39;;;;;;;0.30;0.20;;;;;;;6.93;67.11;102711.06;5042581;28;20508;-50
2022/03/19 00:42:07;;;;;;;0.30;0.20;;;;;;;6.82;68.43;102716.06;5042401;28;20525;-49
2022/03/19 00:44:34;;;;;;;0.30;0.20;;;;;;;6.78;68.24;102710.69;5043278;28;20481;-49
2022/03/19 00:47:01;;;;;;;0.30;0.20;;;;;;;6.80;69.11;102712.50;5047443;28;20472;-49
2022/03/19 00:49:27;;;;;;;0.30;0.17;;;;;;;6.84;68.01;102709.06;5042461;28;20808;-49
2022/03/19 00:51:54;;;;;;;0.30;0.10;;;;;;;6.84;68.96;102709.06;5041957;28;21046;-49
2022/03/19 00:54:21;;;;;;;0.30;0.20;;;;;;;6.84;68.98;102709.06;5048195;28;20455;-49
2022/03/19 00:56:47;;;;;;;0.30;0.20;;;;;;;6.88;68.32;102706.53;5037670;28;20507;-50
2022/03/19 00:59:14;;;;;;;0.30;0.20;;;;;;;6.80;68.23;102704.56;5048168;28;20517;-50
2022/03/19 01:01:41;;;;;;;0.20;0.10;;;;;;;6.73;69.39;102701.75;5047986;28;20451;-50
2022/03/19 01:04:07;;;;;;;0.27;0.20;;;;;;;6.73;69.12;102707.94;5041826;28;20447;-50
2022/03/19 01:06:34;;;;;;;0.20;0.10;;;;;;;6.67;69.63;102706.84;5041590;28;20499;-50
2022/03/19 01:09:01;;;;;;;0.20;0.10;;;;;;;6.69;70.02;102705.16;5047517;28;20476;-50
2022/03/19 01:11:28;;;;;;;0.30;0.30;;;;;;;6.58;69.78;102711.88;5047788;28;20470;-50
2022/03/19 01:13:55;;;;;;;0.30;0.10;;;;;;;6.67;69.72;102701.56;5051368;28;20481;-50
2022/03/19 01:16:25;;;;;;;0.30;0.20;;;;;;;6.61;70.24;102697.03;5041483;28;21023;-50
2022/03/19 01:18:52;;;;;;;0.30;0.20;;;;;;;6.63;70.51;102697.97;5043653;28;20451;-50
2022/03/19 01:21:20;;;;;;;0.20;0.10;;;;;;;6.70;70.19;102694.63;5043244;28;20494;-50
2022/03/19 01:23:46;;;;;;;0.30;0.10;;;;;;;6.58;69.89;102696.03;5045305;28;20472;-50
2022/03/19 01:26:13;;;;;;;1.57;1.57;;;;;;;6.64;70.03;102701.50;5038154;28;20483;-50
2022/03/19 01:28:40;;;;;;;0.20;0.20;;;;;;;6.56;69.46;102692.47;5045631;28;20443;-50
2022/03/19 01:31:06;;;;;;;0.30;0.20;;;;;;;6.59;69.97;102692.56;5047937;28;20521;-50
2022/03/19 01:33:33;;;;;;;0.30;0.10;;;;;;;6.56;69.79;102692.47;5043200;28;20544;-50
2022/03/19 01:35:59;;;;;;;0.20;0.10;;;;;;;6.52;70.52;102694.13;5050828;28;20455;-50
2022/03/19 01:38:26;;;;;;;0.30;0.20;;;;;;;6.49;70.63;102692.31;5044048;28;21078;-50
2022/03/19 01:40:53;;;;;;;0.20;0.13;;;;;;;6.52;70.53;102688.84;5047298;28;20451;-50
2022/03/19 01:43:19;;;;;;;0.30;0.17;;;;;;;6.58;70.23;102682.81;5043575;28;20841;-50
2022/03/19 01:45:48;;;;;;;5.07;0.60;;;;;;;6.49;70.53;102679.09;5040007;28;20454;-50
2022/03/19 01:48:14;;;;;;;0.30;0.20;;;;;;;6.44;71.16;102679.81;5054026;28;20483;-50
2022/03/19 01:50:41;;;;;;;0.30;0.20;;;;;;;6.30;72.13;102689.09;5037269;28;20485;-50
2022/03/19 01:53:08;;;;;;;0.30;0.10;;;;;;;6.26;72.42;102682.84;5043726;28;20528;-50
2022/03/19 01:55:34;;;;;;;0.20;0.10;;;;;;;6.21;73.48;102679.22;5048959;28;20546;-50
2022/03/19 01:58:02;;;;;;;0.30;0.13;;;;;;;6.23;73.30;102680.13;5044077;28;20516;-50
2022/03/19 02:00:28;;;;;;;0.30;0.20;;;;;;;6.21;73.05;102674.81;5043360;28;20483;-50
2022/03/19 02:02:57;;;;;;;0.30;0.10;;;;;;;6.25;72.97;102670.50;5044788;28;20475;-50
2022/03/19 02:05:24;;;;;;;0.30;0.20;;;;;;;6.27;73.24;102678.47;5045697;28;20479;-50
2022/03/19 02:07:51;;;;;;;0.30;0.20;;;;;;;6.33;73.31;102671.63;5045159;28;20447;-51
2022/03/19 02:10:21;;;;;;;0.30;0.20;;;;;;;6.27;73.30;102674.09;5043171;28;20455;-50
2022/03/19 02:12:49;;;;;;;0.30;0.10;;;;;;;6.31;73.61;102672.44;5045786;28;20536;-50
2022/03/19 02:15:16;;;;;;;0.27;0.10;;;;;;;6.13;73.72;102667.53;5047416;28;20460;-50
2022/03/19 02:17:43;;;;;;;0.30;0.10;;;;;;;6.28;73.45;102661.78;5046075;28;21057;-50
2022/03/19 02:20:11;;;;;;;0.30;0.10;;;;;;;6.17;73.99;102657.13;5047086;28;20452;-50
2022/03/19 02:22:37;;;;;;;0.30;0.20;;;;;;;6.21;74.62;102655.44;5049394;28;20475;-50
2022/03/19 02:27:50;;;;;;;0.30;0.20;;;;;;;6.38;73.51;102653.25;5040406;28;20447;-50
2022/03/19 02:30:17;;;;;;;0.30;0.20;;;;;;;6.31;74.54;102648.69;5053105;28;20943;-50
2022/03/19 02:32:49;;;;;;;0.30;0.13;;;;;;;6.17;74.48;102650.94;5040335;28;20504;-50
2022/03/19 02:35:17;;;;;;;0.30;0.10;;;;;;;6.20;74.54;102646.63;5043446;28;20829;-50
2022/03/19 02:37:47;;;;;;;0.30;0.10;;;;;;;6.09;75.30;102648.06;5047072;28;20537;-50
2022/03/19 02:40:16;;;;;;;0.30;0.20;;;;;;;6.19;74.76;102636.91;5046607;28;20475;-50
2022/03/19 02:42:48;;;;;;;0.20;0.20;;;;;;;6.09;74.84;102644.53;5040020;28;20520;-50
2022/03/19 02:45:15;;;;;;;0.30;0.17;;;;;;;6.01;76.00;102633.75;5041758;28;20515;-50
2022/03/19 02:47:57;;;;;;;0.20;0.10;;;;;;;6.03;75.65;102632.06;5053184;28;20451;-50
2022/03/19 02:50:35;;;;;;;0.30;0.20;;;;;;;6.02;76.23;102634.66;5042328;28;20444;-50
2022/03/19 02:53:07;;;;;;;0.30;0.10;;;;;;;5.90;76.47;102636.13;5043040;28;20498;-50
2022/03/19 02:55:39;;;;;;;0.30;0.20;;;;;;;5.97;76.79;102637.16;5048333;28;20865;-50
2022/03/19 02:58:07;;;;;;;0.30;0.10;;;;;;;5.89;76.46;102623.75;5045224;28;20544;-50
2022/03/19 03:00:35;;;;;;;0.30;0.20;;;;;;;5.82;77.40;102628.78;5050739;28;20443;-51
2022/03/19 03:03:04;;;;;;;0.30;0.10;;;;;;;5.83;77.89;102633.22;5041409;28;21054;-50
2022/03/19 03:05:33;;;;;;;0.27;0.13;;;;;;;5.72;77.94;102630.25;5046795;28;20447;-50
2022/03/19 03:08:00;;;;;;;0.30;0.20;;;;;;;5.77;77.35;102636.56;5051098;28;20542;-49
2022/03/19 03:10:28;;;;;;;0.20;0.20;;;;;;;5.80;77.84;102636.66;5045383;28;20453;-50
2022/03/19 03:12:54;;;;;;;0.20;0.10;;;;;;;5.61;78.26;102627.28;5053263;28;20479;-50
2022/03/19 03:15:21;;;;;;;0.30;0.30;;;;;;;5.68;79.10;102628.38;5039775;28;20451;-50
2022/03/19 03:17:48;;;;;;;0.30;0.20;;;;;;;5.65;79.01;102626.56;5050569;28;20538;-50
2022/03/19 03:20:14;;;;;;;0.30;0.10;;;;;;;5.55;78.77;102634.16;5049060;28;20887;-50
2022/03/19 03:22:44;;;;;;;0.30;0.20;;;;;;;5.62;78.81;102623.84;5054412;28;20524;-50
2022/03/19 03:25:11;;;;;;;0.30;0.10;;;;;;;5.64;78.91;102622.13;5041378;28;20451;-50
2022/03/19 03:27:38;;;;;;;0.30;0.20;;;;;;;5.71;79.26;102628.47;5038510;28;20518;-50
2022/03/19 03:30:05;;;;;;;0.20;0.10;;;;;;;5.70;79.34;102624.03;5044820;28;20455;-51
2022/03/19 03:32:31;;;;;;;0.20;0.10;;;;;;;5.71;79.72;102630.22;5046215;28;20493;-50
2022/03/19 03:34:58;;;;;;;0.30;0.10;;;;;;;5.81;78.86;102629.63;5044019;28;20451;-50
2022/03/19 03:37:25;;;;;;;0.30;0.20;;;;;;;5.73;79.60;102623.22;5045345;28;20487;-50
2022/03/19 03:39:51;;;;;;;0.20;0.10;;;;;;;5.82;78.61;102627.03;5047452;28;20452;-51
2022/03/19 03:42:18;;;;;;;0.30;0.10;;;;;;;5.94;78.70;102623.88;5049810;28;20466;-51
2022/03/19 03:44:44;;;;;;;0.20;0.10;;;;;;;5.95;78.28;102617.75;5039686;28;20533;-50
2022/03/19 03:47:11;;;;;;;0.33;0.30;;;;;;;5.99;78.62;102619.63;5051037;28;20455;-50
2022/03/19 03:49:38;;;;;;;0.20;0.13;;;;;;;5.97;78.70;102618.69;5047122;28;20447;-50
2022/03/19 03:52:07;;;;;;;0.20;0.10;;;;;;;5.96;78.31;102613.38;5049412;28;20536;-50
2022/03/19 03:54:34;;;;;;;0.20;0.10;;;;;;;5.93;78.43;102608.91;5045202;28;20454;-50
2022/03/19 03:57:00;;;;;;;0.57;0.57;;;;;;;5.82;78.46;102602.41;5053695;28;20492;-50
2022/03/19 03:59:30;;;;;;;0.30;0.20;;;;;;;5.79;79.60;102600.56;5044547;28;20520;-50
2022/03/19 04:01:57;;;;;;;0.30;0.17;;;;;;;5.83;79.39;102601.53;5042487;28;20466;-50
2022/03/19 04:04:24;;;;;;;0.20;0.10;;;;;;;5.85;78.96;102599.84;5046195;28;20474;-50
2022/03/19 04:06:50;;;;;;;0.20;0.10;;;;;;;5.78;80.00;102597.88;5048604;28;20452;-50
2022/03/19 04:09:17;;;;;;;0.20;0.10;;;;;;;5.74;79.51;102588.97;5045488;28;20450;-50
2022/03/19 04:11:44;;;;;;;0.20;0.20;;;;;;;5.77;79.48;102596.09;5042421;28;20826;-51
2022/03/19 04:14:10;;;;;;;0.20;0.20;;;;;;;5.81;79.28;102584.78;5055601;28;20568;-50
2022/03/19 04:16:37;;;;;;;0.20;0.20;;;;;;;5.88;79.81;102587.59;5053186;28;20945;-50
2022/03/19 04:19:05;;;;;;;0.30;0.20;;;;;;;5.82;79.81;102589.19;5055147;28;20486;-50
2022/03/19 04:21:31;;;;;;;0.20;0.10;;;;;;;5.85;79.17;102582.25;5043091;28;20981;-50
2022/03/19 04:23:58;;;;;;;0.20;0.10;;;;;;;5.77;79.79;102577.63;5044753;28;20471;-50
2022/03/19 04:26:24;;;;;;;0.30;0.17;;;;;;;5.75;80.43;102577.56;5048604;28;20871;-50
2022/03/19 04:28:51;;;;;;;14.53;1.30;;;;;;;5.76;80.13;102574.09;5045104;28;20451;-51
2022/03/19 04:31:17;;;;;;;0.20;0.10;;;;;;;5.77;79.61;102580.28;5041621;28;20504;-50
2022/03/19 04:33:44;;;;;;;0.30;0.20;;;;;;;5.87;79.37;102579.66;5054804;28;20884;-50
2022/03/19 04:39:00;;;;;;;0.30;0.20;;;;;;;5.79;79.59;102579.47;5046171;28;20490;-51
2022/03/19 04:41:27;;;;;;;0.20;0.10;;;;;;;5.90;78.86;102575.41;5042991;28;20462;-50
2022/03/19 04:43:53;;;;;;;0.20;0.13;;;;;;;5.77;79.38;102572.34;5041623;28;20909;-50
2022/03/19 04:46:20;;;;;;;0.20;0.10;;;;;;;5.84;78.64;102580.47;5047306;28;20452;-50
2022/03/19 04:48:48;;;;;;;0.30;0.20;;;;;;;5.78;78.85;102572.41;5052787;28;20481;-51
2022/03/19 04:51:17;;;;;;;0.20;0.20;;;;;;;5.77;79.31;102575.00;5043181;28;20454;-50
2022/03/19 04:53:50;;;;;;;0.27;0.17;;;;;;;5.75;80.05;102574.03;5044234;28;20474;-51
2022/03/19 04:56:18;;;;;;;0.30;0.20;;;;;;;5.81;78.81;102574.22;5044869;28;20579;-51
2022/03/19 04:58:45;;;;;;;0.27;0.20;;;;;;;5.82;78.48;102573.38;5047587;28;20545;-51
2022/03/19 05:01:12;;;;;;;0.20;0.20;;;;;;;5.75;78.31;102576.66;5044065;28;20483;-50
2022/03/19 05:03:39;;;;;;;0.20;0.10;;;;;;;5.71;79.47;102575.69;5041173;28;20475;-50
2022/03/19 05:06:06;;;;;;;0.30;0.20;;;;;;;5.59;79.96;102583.25;5045372;28;20482;-50
2022/03/19 05:08:32;;;;;;;0.30;0.10;;;;;;;5.65;79.01;102584.34;5050296;28;20521;-50
2022/03/19 05:11:15;;;;;;;0.20;0.10;;;;;;;5.65;78.91;102573.78;5046950;28;20474;-50
2022/03/19 05:13:48;;;;;;;0.30;0.10;;;;;;;5.68;78.09;102580.91;5060530;28;20516;-50
2022/03/19 05:16:15;;;;;;;0.23;0.20;;;;;;;5.75;78.45;102580.19;5065948;28;20451;-50
2022/03/19 05:18:42;;;;;;;0.20;0.10;;;;;;;5.79;77.88;102576.81;5053635;28;20486;-50
2022/03/19 05:21:11;;;;;;;0.20;0.10;;;;;;;5.82;77.68;102570.72;5055869;28;20459;-50
2022/03/19 05:23:37;;;;;;;0.30;0.20;;;;;;;5.64;78.60;102565.84;5061024;28;20466;-50
2022/03/19 05:26:04;;;;;;;0.20;0.10;;;;;;;5.76;77.51;102576.75;5071065;28;20451;-50
2022/03/19 05:28:31;;;;;;;0.20;0.20;;;;;;;5.75;78.10;102582.84;5045352;28;20454;-49
2022/03/19 05:31:17;;;;;;;0.20;0.10;;;;;;;5.68;78.73;102575.63;5042084;28;20632;-50
2022/03/19 05:36:30;;;;;;;0.20;0.10;;;;;;;5.50;79.54;102578.63;5042150;28;20454;-50
2022/03/19 05:38:56;;;;;;;0.23;0.10;;;;;;;5.45;79.49;102584.59;5041519;28;20491;-50
2022/03/19 05:41:23;;;;;;;0.20;0.10;;;;;;;5.39;79.35;102576.53;5055129;28;20482;-50
2022/03/19 05:43:49;;;;;;;0.20;0.20;;;;;;;5.31;80.88;102582.44;5050852;28;20470;-49
2022/03/19 05:46:16;;;;;;;0.30;0.20;;;;;;;5.23;81.36;102577.81;5047550;28;20451;-50
2022/03/19 05:48:42;;;;;;;0.20;0.10;;;;;;;5.19;81.39;102583.81;5054138;28;20444;-50
2022/03/19 05:51:09;;;;;;;0.30;0.20;;;;;;;5.57;79.56;102572.66;5051088;28;20501;-50
2022/03/19 05:53:36;;;;;;;0.20;0.20;;;;;;;5.23;80.53;102578.72;5042508;28;20866;-49
2022/03/19 05:56:03;;;;;;;0.30;0.20;;;;;;;5.20;81.25;102575.06;5046416;28;20452;-50
2022/03/19 05:58:29;;;;;;;0.20;0.10;;;;;;;5.02;81.88;102584.19;5050092;28;20486;-51
2022/03/19 06:00:56;;;;;;;0.20;0.10;;;;;;;4.96;83.14;102583.13;5051842;28;20943;-50
2022/03/19 06:03:23;;;;;;;0.30;0.20;;;;;;;5.08;82.04;102583.50;5042717;28;20977;-50
2022/03/19 06:05:50;;;;;;;0.20;0.10;;;;;;;5.18;81.80;102584.66;5046119;28;20478;-50
2022/03/19 06:08:16;;;;;;;0.20;0.20;;;;;;;5.17;81.97;102586.41;5048280;28;20496;-50
2022/03/19 06:10:43;;;;;;;0.40;0.40;;;;;;;5.10;82.92;102583.56;5045204;28;20460;-50
2022/03/19 06:13:09;;;;;;;0.20;0.13;;;;;;;5.17;82.39;102581.13;5044185;28;20475;-50
2022/03/19 06:15:36;;;;;;;0.20;0.10;;;;;;;5.47;80.98;102585.53;5067463;28;20500;-50
2022/03/19 06:18:02;;;;;;;0.30;0.20;;;;;;;5.53;80.82;102588.38;5049406;28;20521;-50
2022/03/19 06:20:29;;;;;;;0.20;0.10;;;;;;;5.80;79.29;102589.16;5048464;28;20451;-50
2022/03/19 06:22:55;;;;;;;0.20;0.10;;;;;;;5.88;78.86;102587.59;5051642;28;20475;-50
2022/03/19 06:25:22;;;;;;;0.30;0.20;;;;;;;5.87;80.26;102587.56;5043538;28;20982;-50
2022/03/19 06:27:48;;;;;;;0.20;0.10;;;;;;;5.89;80.16;102588.50;5040929;28;20835;-50
2022/03/19 06:30:15;;;;;;;0.20;0.20;;;;;;;6.16;78.41;102580.47;5046733;28;20452;-50
2022/03/19 06:32:42;;;;;;;0.20;0.10;;;;;;;6.21;78.34;102579.75;5050761;28;20502;-50
2022/03/19 06:35:10;;;;;;;0.30;0.20;;;;;;;6.20;77.68;102570.03;5042972;28;20869;-47
2022/03/19 06:37:38;;;;;;;0.20;0.10;;;;;;;6.45;76.41;102583.88;5041074;28;20530;-50
2022/03/19 06:40:07;;;;;;;0.30;0.10;;;;;;;6.62;75.53;102590.47;5052995;28;20519;-50
2022/03/19 06:42:34;;;;;;;0.20;0.10;;;;;;;6.60;76.04;102596.59;5048653;28;20478;-50
2022/03/19 06:45:01;;;;;;;0.20;0.10;;;;;;;6.72;75.95;102578.41;5060553;28;20454;-50
2022/03/19 06:47:28;;;;;;;0.30;0.10;;;;;;;6.84;75.45;102581.31;5049706;28;20439;-51
2022/03/19 06:49:54;;;;;;;0.20;0.10;;;;;;;6.91;75.27;102580.59;5044185;28;20501;-50
2022/03/19 06:52:22;;;;;;;0.20;0.10;;;;;;;7.10;74.33;102592.50;5035358;28;20511;-50
2022/03/19 06:54:49;;;;;;;0.20;0.10;;;;;;;7.21;74.69;102596.28;5038631;28;20480;-50
2022/03/19 06:57:16;;;;;;;0.23;0.10;;;;;;;7.35;73.69;102589.53;5044735;28;20458;-51
2022/03/19 06:59:42;;;;;;;0.30;0.20;;;;;;;7.52;74.22;102589.00;5050108;28;20490;-51
2022/03/19 07:02:09;;;;;;;0.27;0.10;;;;;;;7.52;73.68;102583.69;5038542;28;20520;-50
2022/03/19 07:04:35;;;;;;;0.83;0.83;;;;;;;7.69;73.44;102579.66;5040228;28;20953;-50
2022/03/19 07:07:03;;;;;;;0.30;0.20;;;;;;;7.71;72.89;102592.06;5045669;28;20458;-51
2022/03/19 07:09:30;;;;;;;0.30;0.20;;;;;;;7.86;72.80;102588.84;5045200;28;20513;-51
2022/03/19 07:11:57;;;;;;;0.23;0.10;;;;;;;7.75;71.93;102590.38;5038802;28;20479;-51
2022/03/19 07:14:23;;;;;;;0.30;0.20;;;;;;;7.80;72.13;102583.41;5051586;28;20443;-50
2022/03/19 07:16:51;;;;;;;1.30;0.93;;;;;;;7.99;72.03;102589.97;5050548;28;20455;-50
2022/03/19 07:19:18;;;;;;;0.30;0.20;;;;;;;7.91;71.62;102597.75;5052478;28;20494;-50
2022/03/19 07:21:45;;;;;;;0.20;0.20;;;;;;;8.06;71.30;102589.19;5040429;28;20466;-51
2022/03/19 07:24:11;;;;;;;0.30;0.20;;;;;;;8.03;70.94;102583.84;5040156;28;20504;-50
2022/03/19 07:26:38;;;;;;;0.30;0.20;;;;;;;8.03;72.00;102587.38;5046508;28;20479;-50
2022/03/19 07:29:04;;;;;;;0.30;0.10;;;;;;;8.20;70.66;102585.06;5045787;28;20443;-50
2022/03/19 07:31:31;;;;;;;0.30;0.20;;;;;;;8.27;70.70;102586.06;5039363;28;20454;-50
2022/03/19 07:33:59;;;;;;;0.30;0.17;;;;;;;8.47;70.80;102592.63;5039778;28;20547;-51
2022/03/19 07:36:26;;;;;;;0.30;0.20;;;;;;;8.42;70.02;102594.31;5045319;28;20944;-50
2022/03/19 07:38:52;;;;;;;0.30;0.20;;;;;;;8.43;68.80;102593.44;5045322;28;20515;-50
2022/03/19 07:44:05;;;;;;;0.30;0.20;;;;;;;8.56;68.50;102582.19;5046017;28;20501;-50
2022/03/19 07:46:31;;;;;;;0.30;0.20;;;;;;;8.64;68.78;102587.63;5041202;28;20508;-50
2022/03/19 07:48:58;;;;;;;0.30;0.20;;;;;;;8.57;68.23;102583.97;5048311;28;20455;-50
2022/03/19 07:51:25;;;;;;;0.30;0.20;;;;;;;8.71;68.87;102578.00;5041294;28;20455;-50
2022/03/19 07:53:52;;;;;;;0.30;0.10;;;;;;;8.83;69.32;102572.91;5048017;28;20470;-50
2022/03/19 07:56:18;;;;;;;0.30;0.20;;;;;;;8.74;67.88;102578.03;5041963;28;20451;-50
2022/03/19 07:58:50;;;;;;;0.30;0.20;;;;;;;8.85;68.82;102582.66;5038708;28;20551;-50
2022/03/19 08:01:18;;;;;;;4.67;0.80;;;;;;;8.90;68.86;102588.03;5041715;28;20448;-50
2022/03/19 08:03:45;;;;;;;0.30;0.20;;;;;;;9.02;68.79;102588.22;5045696;28;20984;-50
2022/03/19 08:06:13;;;;;;;1.03;0.60;;;;;;;9.04;67.92;102582.91;5043608;28;20978;-50
2022/03/19 08:08:40;;;;;;;0.30;0.20;;;;;;;8.86;68.36;102591.50;5038600;28;20446;-50
2022/03/19 08:11:07;;;;;;;0.30;0.20;;;;;;;8.89;68.61;102579.16;5041567;28;20478;-50
2022/03/19 08:13:34;;;;;;;0.30;0.17;;;;;;;8.87;68.36;102572.97;5055695;28;20970;-50
2022/03/19 08:16:00;;;;;;;0.30;0.20;;;;;;;8.97;68.47;102581.94;5060156;28;20504;-50
2022/03/19 08:18:29;;;;;;;1.20;1.10;;;;;;;9.07;69.64;102589.19;5049407;28;20450;-50
2022/03/19 08:20:57;;;;;;;0.30;0.20;;;;;;;9.28;68.68;102574.44;5043306;28;20458;-50
2022/03/19 08:23:23;;;;;;;0.30;0.20;;;;;;;9.38;68.60;102571.03;5049197;28;20471;-50
2022/03/19 08:25:50;;;;;;;0.30;0.20;;;;;;;9.56;68.13;102581.88;5048464;28;20508;-50
2022/03/19 08:28:17;;;;;;;0.30;0.20;;;;;;;9.55;67.50;102587.16;5041583;28;20450;-50
2022/03/19 08:30:43;;;;;;;0.30;0.20;;;;;;;9.38;67.22;102594.91;5042476;28;20451;-50
2022/03/19 08:33:10;;;;;;;0.30;0.20;;;;;;;9.39;67.25;102573.69;5048969;28;20472;-50
2022/03/19 08:35:36;;;;;;;0.30;0.20;;;;;;;9.29;67.44;102582.41;5048486;28;20897;-50
2022/03/19 08:40:48;;;;;;;0.30;0.10;;;;;;;9.69;66.79;102577.59;5041673;28;20905;-50
2022/03/19 08:43:15;;;;;;;0.30;0.30;;;;;;;9.68;67.82;102586.44;5046479;28;20521;-50
2022/03/19 08:45:41;;;;;;;0.30;0.20;;;;;;;9.48;66.43;102575.59;5048846;28;20506;-50
2022/03/19 08:48:09;;;;;;;0.60;0.57;;;;;;;9.47;67.38;102558.78;5049220;28;20455;-50
2022/03/19 08:50:36;;;;;;;0.30;0.20;;;;;;;9.69;65.91;102566.97;5041941;28;20543;-50
2022/03/19 08:53:03;;;;;;;0.30;0.30;;;;;;;9.84;66.45;102564.50;5045916;28;21059;-50
2022/03/19 08:55:30;;;;;;;1.77;1.67;;;;;;;9.72;65.92;102551.97;5048438;28;20450;-50
2022/03/19 08:57:57;;;;;;;0.30;0.20;;;;;;;9.97;67.00;102560.22;5044443;28;20501;-50
2022/03/19 09:00:24;;;;;;;0.93;0.87;;;;;;;10.07;65.97;102552.34;5040971;28;20487;-50
2022/03/19 09:02:50;;;;;;;0.60;0.60;;;;;;;9.99;65.80;102553.16;5045144;28;20529;-50
2022/03/19 09:05:17;;;;;;;0.30;0.20;;;;;;;9.99;65.06;102553.16;5048075;28;20452;-50
2022/03/19 09:07:44;;;;;;;0.30;0.20;;;;;;;9.97;65.02;102547.81;5044278;28;20516;-50
2022/03/19 09:10:10;;;;;;;1.53;0.60;;;;;;;10.03;64.53;102539.94;5041334;28;20793;-50
2022/03/19 09:12:38;;;;;;;0.30;0.20;;;;;;;10.04;65.26;102540.81;5044737;28;20479;-50
2022/03/19 09:15:07;;;;;;;0.30;0.20;;;;;;;10.17;64.26;102526.78;5066034;28;20446;-50
2022/03/19 09:17:34;;;;;;;0.30;0.20;;;;;;;10.08;63.89;102516.03;5052299;28;20982;-50
2022/03/19 09:20:00;;;;;;;0.30;0.20;;;;;;;10.21;64.41;102523.28;5049835;28;20529;-50
2022/03/19 09:22:29;;;;;;;0.30;0.20;;;;;;;10.39;64.55;102514.56;5048323;28;20482;-50
2022/03/19 09:24:57;;;;;;;0.30;0.20;;;;;;;9.95;62.19;102511.50;5041096;28;20478;-50
2022/03/19 09:27:23;;;;;;;0.30;0.20;;;;;;;10.26;62.82;102525.97;5042266;28;20452;-50
2022/03/19 09:29:50;;;;;;;0.30;0.20;;;;;;;10.51;63.18;102511.13;5047804;28;20933;-50
2022/03/19 09:32:18;;;;;;;0.50;0.50;;;;;;;10.48;63.36;102505.78;5046620;28;20498;-50
2022/03/19 09:34:49;;;;;;;0.30;0.20;;;;;;;10.54;62.43;102511.13;5040989;28;20450;-50
2022/03/19 09:37:16;;;;;;;0.30;0.20;;;;;;;10.48;62.08;102505.78;5039905;28;20451;-50
2022/03/19 09:39:42;;;;;;;0.30;0.20;;;;;;;10.61;62.75;102502.34;5040375;28;20490;-50
2022/03/19 09:42:13;;;;;;;0.30;0.20;;;;;;;10.66;63.57;102493.50;5040389;28;20476;-50
2022/03/19 09:44:43;;;;;;;1.50;1.40;;;;;;;10.96;62.25;102483.91;5046526;28;20898;-50
2022/03/19 09:47:11;;;;;;;0.30;0.20;;;;;;;11.00;62.20;102504.34;5048258;28;20478;-50
2022/03/19 09:49:38;;;;;;;0.30;0.20;;;;;;;11.09;60.91;102500.84;5045838;28;20443;-50
2022/03/19 09:52:05;;;;;;;0.30;0.20;;;;;;;11.08;61.45;102481.31;5046864;28;20471;-50
2022/03/19 09:54:32;;;;;;;1.33;0.83;;;;;;;11.06;60.95;102483.09;5041810;28;20504;-50
2022/03/19 09:56:59;;;;;;;0.30;0.20;;;;;;;10.72;61.49;102475.81;5039875;28;20455;-50
2022/03/19 09:59:27;;;;;;;0.30;0.20;;;;;;;10.97;59.58;102453.78;5045121;28;20553;-50
2022/03/19 10:01:55;;;;;;;0.30;0.20;;;;;;;10.87;61.00;102466.16;5045812;28;20820;-50
2022/03/19 10:04:22;;;;;;;0.30;0.20;;;;;;;11.03;60.16;102455.56;5042457;28;20477;-50
2022/03/19 10:09:45;;;;;;;0.30;0.20;;;;;;;11.12;59.20;102440.53;5040760;28;20498;-50
2022/03/19 10:12:21;;;;;;;0.30;0.20;;;;;;;11.33;60.20;102445.03;5046496;28;20483;-50
2022/03/19 10:14:51;;;;;;;0.80;0.63;;;;;;;11.05;59.34;102441.38;5062137;28;20458;-50
2022/03/19 10:17:44;;;;;;;0.40;0.40;;;;;;;11.10;58.48;102438.72;5051173;28;20451;-56
2022/03/19 10:20:12;;;;;;;0.30;0.20;;;;;;;11.31;59.83;102427.28;5045011;28;20538;-50
2022/03/19 10:22:41;;;;;;;0.30;0.20;;;;;;;11.30;57.19;102417.53;5048774;28;20996;-50
2022/03/19 10:25:10;;;;;;;0.30;0.20;;;;;;;11.53;58.08;102418.47;5046337;28;20451;-50
2022/03/19 10:27:43;;;;;;;0.30;0.20;;;;;;;11.36;57.05;102412.19;5046644;28;20874;-51
2022/03/19 10:30:21;;;;;;;0.30;0.30;;;;;;;11.46;56.27;102414.00;5041350;28;20481;-50
2022/03/19 10:32:53;;;;;;;0.30;0.20;;;;;;;11.60;58.38;102398.03;5039685;28;20549;-50
2022/03/19 10:35:33;;;;;;;0.30;0.20;;;;;;;11.35;58.03;102398.00;5042338;28;20502;-50
2022/03/19 10:38:15;;;;;;;0.70;0.70;;;;;;;11.45;57.96;102396.25;5046253;28;20452;-50
2022/03/19 10:40:44;;;;;;;0.40;0.30;;;;;;;11.65;57.89;102398.94;5045928;28;20490;-48
2022/03/19 10:43:11;;;;;;;0.30;0.20;;;;;;;11.76;57.13;102394.50;5041079;28;20471;-48
2022/03/19 10:45:46;;;;;;;1.30;1.20;;;;;;;11.66;58.06;102385.63;5039501;28;20506;-50
2022/03/19 10:48:17;;;;;;;0.30;0.20;;;;;;;11.67;57.97;102381.19;5052557;28;20538;-48
2022/03/19 10:50:44;;;;;;;0.30;0.20;;;;;;;11.91;57.83;102377.66;5039386;28;20501;-48
2022/03/19 10:53:12;;;;;;;0.67;0.67;;;;;;;11.75;57.95;102374.97;5041308;28;20506;-51
2022/03/19 10:55:39;;;;;;;0.30;0.20;;;;;;;11.96;57.19;102362.56;5045802;28;20961;-54
2022/03/19 10:58:06;;;;;;;0.30;0.20;;;;;;;12.08;57.15;102371.44;5044796;28;20482;-48
2022/03/19 11:00:52;;;;;;;0.30;0.20;;;;;;;12.18;57.26;102355.41;5040475;28;20493;-48
2022/03/19 11:03:27;;;;;;;0.77;0.77;;;;;;;12.04;55.80;102364.31;5038883;28;20493;-48
2022/03/19 11:06:03;;;;;;;0.30;0.20;;;;;;;11.99;55.56;102365.22;5043023;28;20475;-48
2022/03/19 11:08:34;;;;;;;0.30;0.20;;;;;;;11.94;55.25;102345.69;5046005;28;20439;-48
2022/03/19 11:11:03;;;;;;;0.30;0.20;;;;;;;11.90;55.21;102347.44;5043778;28;20493;-48
2022/03/19 11:13:35;;;;;;;0.30;0.20;;;;;;;12.17;55.18;102335.88;5043037;28;20556;-49
2022/03/19 11:16:03;;;;;;;0.30;0.20;;;;;;;12.03;55.07;102329.66;5059744;28;20451;-48
2022/03/19 11:18:30;;;;;;;0.30;0.20;;;;;;;12.10;55.12;102327.00;5049896;28;20807;-48
2022/03/19 11:20:58;;;;;;;0.30;0.20;;;;;;;11.84;54.43;102313.72;5041084;28;20537;-50
2022/03/19 11:23:34;;;;;;;0.40;0.30;;;;;;;12.25;54.61;102323.41;5046713;28;20471;-50
2022/03/19 11:26:02;;;;;;;0.30;0.20;;;;;;;11.88;53.75;102309.25;5045632;28;20469;-50
2022/03/19 11:28:30;;;;;;;0.40;0.30;;;;;;;12.10;53.75;102300.34;5039832;28;20547;-50
2022/03/19 11:31:04;;;;;;;0.30;0.20;;;;;;;12.49;53.02;102298.44;5038449;28;21014;-50
2022/03/19 11:33:34;;;;;;;0.40;0.20;;;;;;;12.33;51.52;102286.03;5043228;28;20472;-50
2022/03/19 11:36:03;;;;;;;0.50;0.50;;;;;;;12.20;51.15;102295.88;5045401;28;20458;-50
2022/03/19 11:38:32;;;;;;;3.70;2.37;;;;;;;12.44;51.58;102292.22;5041720;28;20552;-50
2022/03/19 11:41:00;;;;;;;0.70;0.67;;;;;;;12.44;50.90;102287.78;5037210;28;20487;-50
2022/03/19 11:43:35;;;;;;;0.40;0.30;;;;;;;12.06;50.23;102285.25;5041760;28;20521;-50
2022/03/19 11:46:10;;;;;;;0.30;0.20;;;;;;;12.36;50.57;102281.59;5045275;28;20535;-50
2022/03/19 11:48:54;;;;;;;0.30;0.20;;;;;;;12.28;50.38;102291.41;5050024;28;20509;-50
2022/03/19 11:51:39;;;;;;;0.30;0.20;;;;;;;12.36;52.03;102265.59;5043496;28;20448;-50